KOCW

Washington-Warren Airport

Washington, North Carolina, USA
METAR KOCW 162140Z AUTO 26005KT 10SM OVC038 14/08 A2989 RMK AO2 T01420077
Observed Flight Rules
Dec-16 @ 21:40 UTC (28 minutes ago) Visual Flight Rules
Wind Visibility Clouds
260° at 5 knots 10 miles
  • Overcast at 3,800' AGL
Temperatures Readings
Current 14°C / 57°F
Dewpoint 8°C / 46°F
Humidity 67%
Altimeter 29.89" Hg
Pressure 1012 hPa
Elevation 12
METAR KOCW 162140Z AUTO 26005KT 10SM OVC038 14/08 A2989 RMK AO2 T01420077
Observed Flight Rules
Dec-16 @ 21:40 UTC
(28 minutes ago)
VFR
Wind Visibility
260° at 5 knots 10 miles
Clouds
  • Overcast at 3,800' AGL
Temperature Dewpoint
14°C / 57°F 8°C / 46°F
Humidity Altimeter Pressure
67% 29.89" Hg 1012 hPa